Time;durP1;ratioP1;P1;durP2;ratioP2;P2;SDS_P1;SDS_P2;PMS_P1;PMS_P2;Temp;Humidity;BMP_temperature;BMP_pressure;BME280_temperature;BME280_humidity;BME280_pressure;Samples;Min_cycle;Max_cycle;Signal;HPM_P1;HPM_P2
2023/12/26 00:00:44;;;;;;;1.45;0.60;;;;;;;;;;5014407;28;20034;-64
2023/12/26 00:03:09;;;;;;;1.02;0.43;;;;;;;;;;5019385;28;20026;-64
2023/12/26 00:05:35;;;;;;;1.70;0.70;;;;;;;;;;5011061;28;20034;-66
2023/12/26 00:08:03;;;;;;;2.58;1.00;;;;;;;;;;5025696;28;20056;-64
2023/12/26 00:10:28;;;;;;;2.20;0.90;;;;;;;;;;5027338;28;20083;-64
2023/12/26 00:12:53;;;;;;;0.95;0.38;;;;;;;;;;5018794;28;20037;-64
2023/12/26 00:15:18;;;;;;;1.52;0.50;;;;;;;;;;5014753;28;20018;-65
2023/12/26 00:17:44;;;;;;;3.47;0.60;;;;;;;;;;5014204;28;20029;-64
2023/12/26 00:20:09;;;;;;;1.95;0.80;;;;;;;;;;5013541;28;20093;-64
2023/12/26 00:22:35;;;;;;;1.40;0.50;;;;;;;;;;5015032;28;20040;-65
2023/12/26 00:25:00;;;;;;;1.38;0.40;;;;;;;;;;5023322;28;20018;-64
2023/12/26 00:27:25;;;;;;;4.57;0.57;;;;;;;;;;5014458;28;20064;-64
2023/12/26 00:29:51;;;;;;;2.13;0.57;;;;;;;;;;5015063;28;20029;-64
2023/12/26 00:32:17;;;;;;;1.43;0.53;;;;;;;;;;5014356;28;20429;-64
2023/12/26 00:34:42;;;;;;;2.00;0.70;;;;;;;;;;5014511;28;20310;-65
2023/12/26 00:37:08;;;;;;;1.40;0.60;;;;;;;;;;5017913;28;20018;-64
2023/12/26 00:39:33;;;;;;;1.27;0.40;;;;;;;;;;5014180;28;20018;-64
2023/12/26 00:41:58;;;;;;;1.23;0.50;;;;;;;;;;5014100;28;20026;-64
2023/12/26 00:44:23;;;;;;;3.17;0.60;;;;;;;;;;5015993;28;20086;-64
2023/12/26 00:46:49;;;;;;;1.05;0.50;;;;;;;;;;5016593;28;20269;-64
2023/12/26 00:49:14;;;;;;;1.45;0.57;;;;;;;;;;5007919;28;20030;-64
2023/12/26 00:51:39;;;;;;;2.15;0.68;;;;;;;;;;5017617;28;20029;-64
2023/12/26 00:54:05;;;;;;;1.10;0.50;;;;;;;;;;5018172;28;20460;-64
2023/12/26 00:56:30;;;;;;;1.50;0.57;;;;;;;;;;5014971;28;20034;-65
2023/12/26 00:58:55;;;;;;;1.67;0.60;;;;;;;;;;5013894;28;20101;-64
2023/12/26 01:01:21;;;;;;;2.50;0.60;;;;;;;;;;5015567;28;20026;-64
2023/12/26 01:03:46;;;;;;;1.95;0.77;;;;;;;;;;5014014;28;20327;-64
2023/12/26 01:06:14;;;;;;;1.17;0.60;;;;;;;;;;5013586;28;20084;-65
2023/12/26 01:08:39;;;;;;;2.35;0.70;;;;;;;;;;4999956;28;20877;-64
2023/12/26 01:11:04;;;;;;;1.65;0.70;;;;;;;;;;4980943;28;20026;-64
2023/12/26 01:13:34;;;;;;;1.50;0.60;;;;;;;;;;5009584;28;20031;-64
2023/12/26 01:15:59;;;;;;;1.95;0.80;;;;;;;;;;5013336;28;20269;-64
2023/12/26 01:18:25;;;;;;;1.83;0.60;;;;;;;;;;5026404;28;20101;-64
2023/12/26 01:20:50;;;;;;;1.73;0.88;;;;;;;;;;5020426;28;20043;-65
2023/12/26 01:23:15;;;;;;;5.55;0.93;;;;;;;;;;5013210;28;20033;-65
2023/12/26 01:25:40;;;;;;;2.05;0.90;;;;;;;;;;5014784;28;20018;-65
2023/12/26 01:28:06;;;;;;;1.17;0.60;;;;;;;;;;5014253;28;20104;-65
2023/12/26 01:30:31;;;;;;;5.57;1.05;;;;;;;;;;5012008;28;20030;-65
2023/12/26 01:32:57;;;;;;;1.83;0.80;;;;;;;;;;5017949;28;20076;-65
2023/12/26 01:35:22;;;;;;;1.92;0.88;;;;;;;;;;5024393;28;20460;-66
2023/12/26 01:37:48;;;;;;;2.30;0.90;;;;;;;;;;5016632;28;20481;-65
2023/12/26 01:40:13;;;;;;;1.48;0.65;;;;;;;;;;5013821;28;20022;-65
2023/12/26 01:42:39;;;;;;;5.05;1.02;;;;;;;;;;5020261;28;20036;-65
2023/12/26 01:45:05;;;;;;;3.47;1.05;;;;;;;;;;5022280;28;20487;-65
2023/12/26 01:47:30;;;;;;;2.15;1.13;;;;;;;;;;5024376;28;20056;-65
2023/12/26 01:49:55;;;;;;;5.15;1.33;;;;;;;;;;5020374;28;20022;-66
2023/12/26 01:52:21;;;;;;;1.50;0.75;;;;;;;;;;5015263;28;20103;-66
2023/12/26 01:54:47;;;;;;;2.35;1.00;;;;;;;;;;5012903;28;20025;-65
2023/12/26 01:57:12;;;;;;;6.35;1.17;;;;;;;;;;5013437;28;20469;-65
2023/12/26 01:59:37;;;;;;;3.58;1.23;;;;;;;;;;5012458;28;20034;-65
2023/12/26 02:02:03;;;;;;;2.85;1.17;;;;;;;;;;5009389;28;20020;-65
2023/12/26 02:04:28;;;;;;;2.10;1.00;;;;;;;;;;5015025;28;20464;-66
2023/12/26 02:06:56;;;;;;;2.10;0.88;;;;;;;;;;5012543;28;20030;-65
2023/12/26 02:09:22;;;;;;;3.22;1.08;;;;;;;;;;5014772;28;20104;-65
2023/12/26 02:11:47;;;;;;;4.18;1.70;;;;;;;;;;5012704;28;20091;-66
2023/12/26 02:14:12;;;;;;;3.28;1.35;;;;;;;;;;5014167;28;20101;-65
2023/12/26 02:16:38;;;;;;;2.88;1.02;;;;;;;;;;5013115;28;20090;-65
2023/12/26 02:19:03;;;;;;;3.58;1.45;;;;;;;;;;5012461;28;20064;-65
2023/12/26 02:21:29;;;;;;;2.38;1.20;;;;;;;;;;5015085;28;20622;-65
2023/12/26 02:23:55;;;;;;;2.17;1.02;;;;;;;;;;5016277;28;20033;-65
2023/12/26 02:26:22;;;;;;;3.25;1.42;;;;;;;;;;5012303;28;20071;-65
2023/12/26 02:28:48;;;;;;;4.88;1.15;;;;;;;;;;5012283;28;20053;-65
2023/12/26 02:31:14;;;;;;;2.40;1.17;;;;;;;;;;5012459;28;20026;-65
2023/12/26 02:33:39;;;;;;;3.92;1.48;;;;;;;;;;5014346;28;20484;-65
2023/12/26 02:36:05;;;;;;;8.60;1.60;;;;;;;;;;5013189;28;20100;-65
2023/12/26 02:38:30;;;;;;;5.22;1.27;;;;;;;;;;5011959;28;20098;-65
2023/12/26 02:40:55;;;;;;;3.25;1.33;;;;;;;;;;5011955;28;20014;-65
2023/12/26 02:43:21;;;;;;;4.25;1.48;;;;;;;;;;5017575;28;20029;-65
2023/12/26 02:45:48;;;;;;;3.00;1.20;;;;;;;;;;5012464;28;20380;-65
2023/12/26 02:48:14;;;;;;;2.85;1.20;;;;;;;;;;5011984;28;20033;-66
2023/12/26 02:50:39;;;;;;;3.60;1.10;;;;;;;;;;5011956;28;20033;-66
2023/12/26 02:53:04;;;;;;;5.82;1.42;;;;;;;;;;5012537;28;20077;-65
2023/12/26 02:55:29;;;;;;;2.85;1.35;;;;;;;;;;5024417;28;20021;-65
2023/12/26 02:57:55;;;;;;;4.35;1.00;;;;;;;;;;5012205;28;20105;-65
2023/12/26 03:00:20;;;;;;;4.13;0.90;;;;;;;;;;5012223;28;20030;-65
2023/12/26 03:02:45;;;;;;;3.75;1.10;;;;;;;;;;5011993;28;20018;-65
2023/12/26 03:05:10;;;;;;;4.72;1.17;;;;;;;;;;5024587;28;20113;-65
2023/12/26 03:07:36;;;;;;;2.53;1.10;;;;;;;;;;5012104;28;20034;-65
2023/12/26 03:10:04;;;;;;;4.57;1.60;;;;;;;;;;5015290;28;20296;-66
2023/12/26 03:12:30;;;;;;;3.15;1.23;;;;;;;;;;5011738;28;20111;-65
2023/12/26 03:14:55;;;;;;;3.00;0.93;;;;;;;;;;5011745;28;20519;-65
2023/12/26 03:17:20;;;;;;;5.90;1.50;;;;;;;;;;5011711;28;20414;-65
2023/12/26 03:19:45;;;;;;;5.95;1.50;;;;;;;;;;5011589;28;20268;-66
2023/12/26 03:22:11;;;;;;;5.55;1.10;;;;;;;;;;5016469;28;20021;-65
2023/12/26 03:24:36;;;;;;;3.40;1.10;;;;;;;;;;5017730;28;20030;-65
2023/12/26 03:27:02;;;;;;;6.00;1.65;;;;;;;;;;5015723;28;20639;-65
2023/12/26 03:29:27;;;;;;;3.15;1.10;;;;;;;;;;5019389;28;20029;-65
2023/12/26 03:31:53;;;;;;;5.90;1.23;;;;;;;;;;5011073;28;20438;-66
2023/12/26 03:34:18;;;;;;;3.60;1.30;;;;;;;;;;5012395;28;20022;-67
2023/12/26 03:36:44;;;;;;;3.53;1.23;;;;;;;;;;5014417;28;20032;-66
2023/12/26 03:39:09;;;;;;;3.97;0.82;;;;;;;;;;5024098;28;20030;-66
2023/12/26 03:41:35;;;;;;;2.25;0.93;;;;;;;;;;5011145;28;20125;-65
2023/12/26 03:44:01;;;;;;;3.75;1.08;;;;;;;;;;5011923;28;20022;-65
2023/12/26 03:46:26;;;;;;;6.72;1.20;;;;;;;;;;5011550;28;20384;-66
2023/12/26 03:48:51;;;;;;;4.10;1.52;;;;;;;;;;5010779;28;20076;-66
2023/12/26 03:51:16;;;;;;;6.00;1.60;;;;;;;;;;4993577;28;20056;-65
2023/12/26 03:53:42;;;;;;;2.83;1.20;;;;;;;;;;5013713;28;20380;-65
2023/12/26 03:56:07;;;;;;;2.60;1.00;;;;;;;;;;5015025;28;20026;-65
2023/12/26 03:58:32;;;;;;;5.93;1.65;;;;;;;;;;5014808;28;20288;-65
2023/12/26 04:00:57;;;;;;;2.97;1.30;;;;;;;;;;5014968;28;20418;-65
2023/12/26 04:03:23;;;;;;;7.95;2.17;;;;;;;;;;5016882;28;20076;-66
2023/12/26 04:05:48;;;;;;;2.13;0.90;;;;;;;;;;5023135;28;20029;-66
2023/12/26 04:08:13;;;;;;;3.53;0.95;;;;;;;;;;5014728;28;20488;-66
2023/12/26 04:10:38;;;;;;;2.88;1.38;;;;;;;;;;5010975;28;20048;-66
2023/12/26 04:13:03;;;;;;;2.95;1.23;;;;;;;;;;5014268;28;20018;-65
2023/12/26 04:15:29;;;;;;;3.38;1.10;;;;;;;;;;5014429;28;20026;-66
2023/12/26 04:17:54;;;;;;;5.10;1.35;;;;;;;;;;5014466;28;20021;-67
2023/12/26 04:20:19;;;;;;;4.68;1.63;;;;;;;;;;5014921;28;20446;-67
2023/12/26 04:22:44;;;;;;;4.80;1.20;;;;;;;;;;5014894;28;20025;-67
2023/12/26 04:25:10;;;;;;;3.63;1.25;;;;;;;;;;5014958;28;20105;-66
2023/12/26 04:27:35;;;;;;;3.33;1.20;;;;;;;;;;5014084;28;20022;-66
2023/12/26 04:30:00;;;;;;;2.85;1.27;;;;;;;;;;5021844;28;20064;-66
2023/12/26 04:32:26;;;;;;;2.03;0.98;;;;;;;;;;5021321;28;20030;-66
2023/12/26 04:34:52;;;;;;;5.10;1.35;;;;;;;;;;5018543;28;20026;-67
2023/12/26 04:37:17;;;;;;;3.85;1.13;;;;;;;;;;5021287;28;20099;-66
2023/12/26 04:39:43;;;;;;;4.38;1.38;;;;;;;;;;5023095;28;20467;-66
2023/12/26 04:42:09;;;;;;;4.35;1.40;;;;;;;;;;5018010;28;20092;-66
2023/12/26 04:44:34;;;;;;;6.40;1.65;;;;;;;;;;5021494;28;20064;-66
2023/12/26 04:46:59;;;;;;;5.67;1.37;;;;;;;;;;5019193;28;20029;-66
2023/12/26 04:49:24;;;;;;;3.73;1.57;;;;;;;;;;5014811;28;20327;-66
2023/12/26 04:51:50;;;;;;;2.90;1.30;;;;;;;;;;5013708;28;20288;-66
2023/12/26 04:54:15;;;;;;;4.07;1.25;;;;;;;;;;5013378;28;20073;-66
2023/12/26 04:56:43;;;;;;;3.40;1.20;;;;;;;;;;5014278;28;20045;-65
2023/12/26 04:59:08;;;;;;;3.10;1.42;;;;;;;;;;5018980;28;20090;-65
2023/12/26 05:01:39;;;;;;;3.53;1.15;;;;;;;;;;5013798;28;20418;-66
2023/12/26 05:04:04;;;;;;;5.22;1.25;;;;;;;;;;5012146;28;20030;-64
2023/12/26 05:06:30;;;;;;;2.37;1.20;;;;;;;;;;5013648;28;20037;-66
2023/12/26 05:08:55;;;;;;;3.10;0.83;;;;;;;;;;5015572;28;20284;-66
2023/12/26 05:11:22;;;;;;;4.45;1.33;;;;;;;;;;5014413;28;20304;-66
2023/12/26 05:13:47;;;;;;;4.72;1.15;;;;;;;;;;5024253;28;20049;-65
2023/12/26 05:16:12;;;;;;;3.53;1.15;;;;;;;;;;5013597;28;20099;-66
2023/12/26 05:18:38;;;;;;;3.28;1.38;;;;;;;;;;5012937;28;20022;-66
2023/12/26 05:21:03;;;;;;;3.23;1.00;;;;;;;;;;5013095;28;20037;-65
2023/12/26 05:23:28;;;;;;;3.35;1.30;;;;;;;;;;5012913;28;20279;-66
2023/12/26 05:25:54;;;;;;;2.28;1.00;;;;;;;;;;5014600;28;20018;-66
2023/12/26 05:28:19;;;;;;;3.10;1.27;;;;;;;;;;5016848;28;20050;-66
2023/12/26 05:30:44;;;;;;;3.33;1.15;;;;;;;;;;5012780;28;20032;-65
2023/12/26 05:33:09;;;;;;;3.40;0.98;;;;;;;;;;5012808;28;20038;-66
2023/12/26 05:35:34;;;;;;;4.32;1.45;;;;;;;;;;5015583;28;20125;-66
2023/12/26 05:38:00;;;;;;;4.78;1.25;;;;;;;;;;5014135;28;20025;-65
2023/12/26 05:40:26;;;;;;;4.00;1.30;;;;;;;;;;5013928;28;20053;-65
2023/12/26 05:42:51;;;;;;;5.43;1.67;;;;;;;;;;5017060;28;20431;-65
2023/12/26 05:45:17;;;;;;;5.15;1.13;;;;;;;;;;5008567;28;20028;-65
2023/12/26 05:47:42;;;;;;;3.33;1.23;;;;;;;;;;4990927;28;20148;-64
2023/12/26 05:50:07;;;;;;;3.63;1.25;;;;;;;;;;5020755;28;20469;-66
2023/12/26 05:52:33;;;;;;;3.10;1.17;;;;;;;;;;5025054;28;20049;-66
2023/12/26 05:54:58;;;;;;;3.83;1.10;;;;;;;;;;5012464;28;20026;-65
2023/12/26 05:57:24;;;;;;;5.13;1.40;;;;;;;;;;5014127;28;20036;-64
2023/12/26 05:59:49;;;;;;;4.28;1.17;;;;;;;;;;5013456;28;20032;-66
2023/12/26 06:02:15;;;;;;;5.75;1.50;;;;;;;;;;5013415;28;20396;-64
2023/12/26 06:04:40;;;;;;;4.25;1.33;;;;;;;;;;5012460;28;20050;-64
2023/12/26 06:07:05;;;;;;;2.63;1.10;;;;;;;;;;5012579;28;20018;-66
2023/12/26 06:09:31;;;;;;;3.35;1.20;;;;;;;;;;5012476;28;20061;-65
2023/12/26 06:11:56;;;;;;;2.17;1.00;;;;;;;;;;5013285;28;20033;-65
2023/12/26 06:14:24;;;;;;;5.55;1.27;;;;;;;;;;5012597;28;20034;-66
2023/12/26 06:16:49;;;;;;;5.43;1.70;;;;;;;;;;5015572;28;20480;-66
2023/12/26 06:19:15;;;;;;;3.88;1.80;;;;;;;;;;5024002;28;20029;-65
2023/12/26 06:21:40;;;;;;;4.10;1.45;;;;;;;;;;5019360;28;20032;-65
2023/12/26 06:24:05;;;;;;;3.63;1.45;;;;;;;;;;5011055;28;20026;-65
2023/12/26 06:26:30;;;;;;;3.50;1.50;;;;;;;;;;4975646;28;20943;-65
2023/12/26 06:28:56;;;;;;;5.55;1.80;;;;;;;;;;5009877;28;20469;-65
2023/12/26 06:31:21;;;;;;;6.75;1.55;;;;;;;;;;5013405;28;20034;-65
2023/12/26 06:33:46;;;;;;;3.70;1.65;;;;;;;;;;5013664;28;20495;-65
2023/12/26 06:36:11;;;;;;;5.35;1.73;;;;;;;;;;4997133;28;20056;-65
2023/12/26 06:38:37;;;;;;;5.68;1.83;;;;;;;;;;4989828;28;20026;-66
2023/12/26 06:41:02;;;;;;;4.28;1.83;;;;;;;;;;4977742;28;20080;-66
2023/12/26 06:43:28;;;;;;;5.20;1.60;;;;;;;;;;4983386;28;20822;-65
2023/12/26 06:45:53;;;;;;;5.30;1.75;;;;;;;;;;4986777;28;20040;-65
2023/12/26 06:48:19;;;;;;;3.00;1.63;;;;;;;;;;4974737;28;20038;-65
2023/12/26 06:50:44;;;;;;;3.65;1.65;;;;;;;;;;4962100;28;20917;-65
2023/12/26 06:53:10;;;;;;;4.20;1.85;;;;;;;;;;4976082;28;20877;-65
2023/12/26 06:55:38;;;;;;;5.25;1.80;;;;;;;;;;4975509;28;20026;-66
2023/12/26 06:58:04;;;;;;;4.38;1.95;;;;;;;;;;4974323;28;20140;-66
2023/12/26 07:00:29;;;;;;;3.42;1.70;;;;;;;;;;4977029;28;20754;-64
2023/12/26 07:02:55;;;;;;;4.28;1.65;;;;;;;;;;4986701;28;20033;-65
2023/12/26 07:05:21;;;;;;;4.07;2.22;;;;;;;;;;4976283;28;20030;-65
2023/12/26 07:07:46;;;;;;;3.00;1.65;;;;;;;;;;4982374;28;20801;-65
2023/12/26 07:10:11;;;;;;;6.18;2.15;;;;;;;;;;4976688;28;20034;-65
2023/12/26 07:12:37;;;;;;;6.38;2.20;;;;;;;;;;4981540;28;21047;-66
2023/12/26 07:15:03;;;;;;;5.82;2.03;;;;;;;;;;4986029;28;20854;-66
2023/12/26 07:17:28;;;;;;;3.95;2.28;;;;;;;;;;4978286;28;20869;-66
2023/12/26 07:19:53;;;;;;;5.72;2.03;;;;;;;;;;4971543;28;20166;-66
2023/12/26 07:22:18;;;;;;;8.40;2.50;;;;;;;;;;4980293;28;20381;-66
2023/12/26 07:24:44;;;;;;;8.33;2.00;;;;;;;;;;5002111;28;20025;-66
2023/12/26 07:27:09;;;;;;;6.40;2.88;;;;;;;;;;4977079;28;20399;-66
2023/12/26 07:29:35;;;;;;;3.90;2.05;;;;;;;;;;4983284;28;20021;-64
2023/12/26 07:32:00;;;;;;;3.58;1.85;;;;;;;;;;4983368;28;20034;-65
2023/12/26 07:34:25;;;;;;;6.00;2.33;;;;;;;;;;5005474;28;20034;-65
2023/12/26 07:36:50;;;;;;;5.95;2.42;;;;;;;;;;4988381;28;20036;-65
2023/12/26 07:39:16;;;;;;;4.18;2.20;;;;;;;;;;4993210;28;20810;-65
2023/12/26 07:41:41;;;;;;;4.60;2.35;;;;;;;;;;4984245;28;20033;-65
2023/12/26 07:44:07;;;;;;;7.60;4.30;;;;;;;;;;4983121;28;20926;-65
2023/12/26 07:46:32;;;;;;;6.82;4.05;;;;;;;;;;4975489;28;20034;-65
2023/12/26 07:48:57;;;;;;;5.55;3.22;;;;;;;;;;4996703;28;20124;-65
2023/12/26 07:51:24;;;;;;;6.85;4.13;;;;;;;;;;4999272;28;20495;-65
2023/12/26 07:53:49;;;;;;;6.63;2.25;;;;;;;;;;4992499;28;20065;-65
2023/12/26 07:56:14;;;;;;;6.32;2.13;;;;;;;;;;4992486;28;20025;-65
2023/12/26 07:58:40;;;;;;;6.57;1.92;;;;;;;;;;4984050;28;20246;-65
2023/12/26 08:01:05;;;;;;;5.22;2.10;;;;;;;;;;5007534;28;20029;-65
2023/12/26 08:03:30;;;;;;;3.58;1.50;;;;;;;;;;4990624;28;20080;-65
2023/12/26 08:05:55;;;;;;;7.18;1.88;;;;;;;;;;4996653;28;20025;-65
2023/12/26 08:08:21;;;;;;;8.52;2.00;;;;;;;;;;5000991;28;20034;-65
2023/12/26 08:10:47;;;;;;;8.88;2.25;;;;;;;;;;4988134;28;20029;-65
2023/12/26 08:13:13;;;;;;;6.32;1.70;;;;;;;;;;4985366;28;20092;-65
2023/12/26 08:15:38;;;;;;;5.57;2.13;;;;;;;;;;4995159;28;20029;-65
2023/12/26 08:18:04;;;;;;;4.28;1.73;;;;;;;;;;4986323;28;20061;-65
2023/12/26 08:20:29;;;;;;;2.92;1.58;;;;;;;;;;4974993;28;20129;-65
2023/12/26 08:22:55;;;;;;;4.38;1.52;;;;;;;;;;4984959;28;20041;-65
2023/12/26 08:25:20;;;;;;;5.60;1.90;;;;;;;;;;4980392;28;20835;-65
2023/12/26 08:27:45;;;;;;;5.38;1.42;;;;;;;;;;4976728;28;20642;-65
2023/12/26 08:30:11;;;;;;;7.18;1.55;;;;;;;;;;4984441;28;20042;-65
2023/12/26 08:32:36;;;;;;;5.75;1.73;;;;;;;;;;4978863;28;20866;-65
2023/12/26 08:35:01;;;;;;;3.83;1.65;;;;;;;;;;4985470;28;20026;-65
2023/12/26 08:37:27;;;;;;;6.03;1.30;;;;;;;;;;4985435;28;20028;-65
2023/12/26 08:39:53;;;;;;;3.22;1.13;;;;;;;;;;4990055;28;20021;-65
2023/12/26 08:42:18;;;;;;;3.33;1.48;;;;;;;;;;4989455;28;20918;-65
2023/12/26 08:44:43;;;;;;;9.73;1.70;;;;;;;;;;4987245;28;20399;-64
2023/12/26 08:47:08;;;;;;;4.63;1.38;;;;;;;;;;4989651;28;20053;-66
2023/12/26 08:49:34;;;;;;;2.50;1.15;;;;;;;;;;5002922;28;20021;-65
2023/12/26 08:52:01;;;;;;;4.03;1.23;;;;;;;;;;4979405;28;20605;-65
2023/12/26 08:54:26;;;;;;;2.45;0.95;;;;;;;;;;4985103;28;20784;-65
2023/12/26 08:56:51;;;;;;;2.70;1.02;;;;;;;;;;4980899;28;20030;-65
2023/12/26 08:59:18;;;;;;;3.78;0.85;;;;;;;;;;4976522;28;20915;-65
2023/12/26 09:01:43;;;;;;;5.57;1.05;;;;;;;;;;4974428;28;20026;-65
2023/12/26 09:04:08;;;;;;;5.28;1.45;;;;;;;;;;4975077;28;20021;-65
2023/12/26 09:06:34;;;;;;;5.57;1.05;;;;;;;;;;4987779;28;20037;-65
2023/12/26 09:08:59;;;;;;;2.38;0.77;;;;;;;;;;4973480;28;20022;-65
2023/12/26 09:11:24;;;;;;;3.95;0.93;;;;;;;;;;4973154;28;20034;-65
2023/12/26 09:13:49;;;;;;;3.90;1.10;;;;;;;;;;4986204;28;20049;-64
2023/12/26 09:16:15;;;;;;;3.07;1.10;;;;;;;;;;4978543;28;20080;-65
2023/12/26 09:18:41;;;;;;;6.78;1.50;;;;;;;;;;4991335;28;20349;-65
2023/12/26 09:21:06;;;;;;;4.10;0.70;;;;;;;;;;4990714;28;20022;-65
2023/12/26 09:23:31;;;;;;;7.40;1.55;;;;;;;;;;4993906;28;20029;-65
2023/12/26 09:25:57;;;;;;;4.32;1.15;;;;;;;;;;4979062;28;20022;-64
2023/12/26 09:28:22;;;;;;;4.72;1.00;;;;;;;;;;4985780;28;20141;-64
2023/12/26 09:30:48;;;;;;;4.50;1.15;;;;;;;;;;4982144;28;20073;-64
2023/12/26 09:33:13;;;;;;;3.42;0.65;;;;;;;;;;4982781;28;20547;-64
2023/12/26 09:35:38;;;;;;;4.57;1.27;;;;;;;;;;4982639;28;20072;-63
2023/12/26 09:38:03;;;;;;;3.42;0.80;;;;;;;;;;4980662;28;20041;-64
2023/12/26 09:40:29;;;;;;;5.70;1.10;;;;;;;;;;4983507;28;20029;-63
2023/12/26 09:43:02;;;;;;;6.85;1.67;;;;;;;;;;4984747;28;20800;-65
2023/12/26 09:45:27;;;;;;;7.68;1.38;;;;;;;;;;5001051;28;20849;-65
2023/12/26 09:47:53;;;;;;;3.85;0.73;;;;;;;;;;4986080;28;20079;-65
2023/12/26 09:50:19;;;;;;;3.50;0.95;;;;;;;;;;4975561;28;20029;-65
2023/12/26 09:52:48;;;;;;;3.08;0.73;;;;;;;;;;4977794;28;20030;-63
2023/12/26 09:55:13;;;;;;;4.22;1.27;;;;;;;;;;4982151;28;20034;-65
2023/12/26 09:57:40;;;;;;;4.00;0.95;;;;;;;;;;4987677;28;20062;-65
2023/12/26 10:00:06;;;;;;;3.05;1.02;;;;;;;;;;4973380;28;20112;-65
2023/12/26 10:02:31;;;;;;;1.95;0.63;;;;;;;;;;4992044;28;20057;-65
2023/12/26 10:04:56;;;;;;;2.38;0.90;;;;;;;;;;4973166;28;20759;-64
2023/12/26 10:07:21;;;;;;;6.18;1.35;;;;;;;;;;4975974;28;20180;-63
2023/12/26 10:09:48;;;;;;;4.28;1.05;;;;;;;;;;4984309;28;20052;-66
2023/12/26 10:12:13;;;;;;;3.75;0.73;;;;;;;;;;4977446;28;20013;-65
2023/12/26 10:14:38;;;;;;;2.58;0.70;;;;;;;;;;4991420;28;20797;-65
2023/12/26 10:17:04;;;;;;;6.68;1.00;;;;;;;;;;4983870;28;20029;-65
2023/12/26 10:19:30;;;;;;;4.88;0.98;;;;;;;;;;4988051;28;20025;-65
2023/12/26 10:21:56;;;;;;;6.25;1.45;;;;;;;;;;4978915;28;20026;-65
2023/12/26 10:24:21;;;;;;;4.57;0.95;;;;;;;;;;4972525;28;20061;-65
2023/12/26 10:26:46;;;;;;;6.60;1.00;;;;;;;;;;4985532;28;20053;-64
2023/12/26 10:29:12;;;;;;;2.60;0.80;;;;;;;;;;4980098;28;20080;-65
2023/12/26 10:31:39;;;;;;;6.93;1.58;;;;;;;;;;4984869;28;20928;-64
2023/12/26 10:34:18;;;;;;;6.05;1.15;;;;;;;;;;4977340;28;20036;-65
2023/12/26 10:36:44;;;;;;;4.85;1.25;;;;;;;;;;4986379;28;20486;-64
2023/12/26 10:39:11;;;;;;;8.90;1.35;;;;;;;;;;4978084;28;20018;-65
2023/12/26 10:41:37;;;;;;;3.80;1.20;;;;;;;;;;4982985;28;20041;-65
2023/12/26 10:44:03;;;;;;;6.65;1.00;;;;;;;;;;4994449;28;20029;-64
2023/12/26 10:46:30;;;;;;;6.45;1.10;;;;;;;;;;4980942;28;20894;-65
2023/12/26 10:48:56;;;;;;;6.18;1.08;;;;;;;;;;4977388;28;20142;-65
2023/12/26 10:51:26;;;;;;;5.82;1.33;;;;;;;;;;4975756;28;20136;-64
2023/12/26 10:54:04;;;;;;;7.97;1.20;;;;;;;;;;4977455;28;20021;-66
2023/12/26 10:56:31;;;;;;;3.55;1.05;;;;;;;;;;4979814;28;20144;-65
2023/12/26 10:58:57;;;;;;;6.30;0.80;;;;;;;;;;4977022;28;20130;-63
2023/12/26 13:53:14;;;;;;;6.28;1.13;;;;;;;;;;5000583;28;21134;-64
2023/12/26 13:55:58;;;;;;;5.82;1.30;;;;;;;;;;4990441;28;20083;-67
2023/12/26 13:58:41;;;;;;;2.63;0.93;;;;;;;;;;4988384;28;20025;-67
2023/12/26 14:01:25;;;;;;;5.40;1.38;;;;;;;;;;4978108;28;20132;-64
2023/12/26 14:04:09;;;;;;;4.93;0.88;;;;;;;;;;4974747;28;20087;-66
2023/12/26 14:06:53;;;;;;;6.00;1.30;;;;;;;;;;4975393;28;20045;-64
2023/12/26 14:09:37;;;;;;;5.40;1.23;;;;;;;;;;4999525;28;20267;-64
2023/12/26 14:12:20;;;;;;;6.05;1.20;;;;;;;;;;4981946;28;20212;-64
2023/12/26 14:15:04;;;;;;;3.63;0.90;;;;;;;;;;4992228;28;20117;-63
2023/12/26 14:17:48;;;;;;;3.55;1.20;;;;;;;;;;4984711;28;20867;-64
2023/12/26 14:20:32;;;;;;;3.55;1.00;;;;;;;;;;4985222;28;20033;-63
2023/12/26 14:23:16;;;;;;;8.73;1.37;;;;;;;;;;4986275;28;20032;-63
2023/12/26 14:26:00;;;;;;;4.17;1.00;;;;;;;;;;4982957;28;20026;-65
2023/12/26 14:28:44;;;;;;;3.90;1.02;;;;;;;;;;4990252;28;20029;-65
2023/12/26 14:31:28;;;;;;;3.42;1.10;;;;;;;;;;4992460;28;20101;-65
2023/12/26 14:34:12;;;;;;;5.80;1.35;;;;;;;;;;4985091;28;20033;-64
2023/12/26 14:36:56;;;;;;;4.70;1.17;;;;;;;;;;5008575;28;20014;-62
2023/12/26 14:39:40;;;;;;;7.15;1.20;;;;;;;;;;5012516;28;20042;-65
2023/12/26 14:42:24;;;;;;;6.32;1.40;;;;;;;;;;5017624;28;20025;-64
2023/12/26 14:45:07;;;;;;;7.67;1.90;;;;;;;;;;5012025;28;20029;-66
2023/12/26 14:47:51;;;;;;;10.85;1.60;;;;;;;;;;5014686;28;20551;-65
2023/12/26 14:50:35;;;;;;;6.57;1.30;;;;;;;;;;5014212;28;20390;-64
2023/12/26 14:53:19;;;;;;;6.20;1.90;;;;;;;;;;5011623;28;20293;-64
2023/12/26 14:56:03;;;;;;;5.28;0.93;;;;;;;;;;5011615;28;20068;-65
2023/12/26 14:58:47;;;;;;;8.27;1.90;;;;;;;;;;5013693;28;20026;-65
2023/12/26 15:01:31;;;;;;;6.90;1.52;;;;;;;;;;5011608;28;20105;-65
2023/12/26 15:03:57;;;;;;;4.60;0.80;;;;;;;;;;5019224;28;20026;-65
2023/12/26 15:06:22;;;;;;;5.68;1.10;;;;;;;;;;5028965;28;20550;-65
2023/12/26 15:08:47;;;;;;;8.60;2.15;;;;;;;;;;5025050;28;20034;-64
2023/12/26 15:11:16;;;;;;;6.80;1.25;;;;;;;;;;5016591;28;20478;-64
2023/12/26 15:13:41;;;;;;;3.60;1.25;;;;;;;;;;5012376;28;20423;-64
2023/12/26 15:16:17;;;;;;;9.15;1.85;;;;;;;;;;5011751;28;20072;-61
2023/12/26 15:18:42;;;;;;;5.88;1.15;;;;;;;;;;5012541;28;20014;-65
2023/12/26 15:21:07;;;;;;;8.48;2.17;;;;;;;;;;5011133;28;20030;-64
2023/12/26 15:23:33;;;;;;;3.97;1.33;;;;;;;;;;5011156;28;20022;-64
2023/12/26 15:25:59;;;;;;;6.55;1.58;;;;;;;;;;5010609;28;20372;-62
2023/12/26 15:28:24;;;;;;;4.07;1.42;;;;;;;;;;5011040;28;20172;-62
2023/12/26 15:30:49;;;;;;;6.80;1.33;;;;;;;;;;5017291;28;20437;-64
2023/12/26 15:33:16;;;;;;;6.22;1.88;;;;;;;;;;5011692;28;20030;-64
2023/12/26 15:35:44;;;;;;;8.60;1.52;;;;;;;;;;5019591;28;20025;-64
2023/12/26 15:38:09;;;;;;;3.92;1.42;;;;;;;;;;5007810;28;20026;-64
2023/12/26 15:40:34;;;;;;;3.85;1.17;;;;;;;;;;4982477;28;20028;-64
2023/12/26 15:43:00;;;;;;;7.00;1.40;;;;;;;;;;4985041;28;20017;-63
2023/12/26 15:45:25;;;;;;;6.18;1.67;;;;;;;;;;4978949;28;20821;-64
2023/12/26 15:47:52;;;;;;;8.98;1.73;;;;;;;;;;4971585;28;20177;-64
2023/12/26 15:50:18;;;;;;;6.57;1.52;;;;;;;;;;4981023;28;20030;-64
2023/12/26 15:52:43;;;;;;;5.53;1.60;;;;;;;;;;4974891;28;20140;-64
2023/12/26 15:55:09;;;;;;;4.97;1.42;;;;;;;;;;4976638;28;20054;-64
2023/12/26 15:57:35;;;;;;;6.68;1.42;;;;;;;;;;4976386;28;20041;-64
2023/12/26 16:00:00;;;;;;;10.57;1.77;;;;;;;;;;5001330;28;20084;-63
2023/12/26 16:02:25;;;;;;;10.27;1.60;;;;;;;;;;4994816;28;20284;-64
2023/12/26 16:04:50;;;;;;;4.88;1.73;;;;;;;;;;5015038;28;20018;-61
2023/12/26 16:07:16;;;;;;;8.73;1.85;;;;;;;;;;5014892;28;20487;-62
2023/12/26 16:09:41;;;;;;;7.78;1.48;;;;;;;;;;5025048;28;20461;-61
2023/12/26 16:12:07;;;;;;;8.38;1.30;;;;;;;;;;5014061;28;20160;-62
2023/12/26 16:14:33;;;;;;;4.38;1.73;;;;;;;;;;5024769;28;20243;-63
2023/12/26 16:16:58;;;;;;;7.97;1.35;;;;;;;;;;5011087;28;21018;-64
2023/12/26 16:19:24;;;;;;;5.80;1.63;;;;;;;;;;5006255;28;20030;-65
2023/12/26 16:21:49;;;;;;;3.00;1.13;;;;;;;;;;5019472;28;20487;-65
2023/12/26 16:24:14;;;;;;;4.67;1.37;;;;;;;;;;5021662;28;20647;-64
2023/12/26 16:26:42;;;;;;;6.47;1.42;;;;;;;;;;5011041;28;20759;-65
2023/12/26 16:29:07;;;;;;;7.35;1.17;;;;;;;;;;5012194;28;20033;-69
2023/12/26 16:31:33;;;;;;;7.47;1.15;;;;;;;;;;4991628;28;20041;-65
2023/12/26 16:33:58;;;;;;;10.90;1.30;;;;;;;;;;5014463;28;20726;-65
2023/12/26 16:36:23;;;;;;;6.32;1.65;;;;;;;;;;5009941;28;20064;-67
2023/12/26 16:38:49;;;;;;;5.97;1.97;;;;;;;;;;4979838;28;20026;-68
2023/12/26 16:41:14;;;;;;;9.23;1.90;;;;;;;;;;5002544;28;20277;-66
2023/12/26 16:43:39;;;;;;;9.38;1.58;;;;;;;;;;5008329;28;20022;-63
2023/12/26 16:46:05;;;;;;;4.15;1.35;;;;;;;;;;5004029;28;20025;-63
2023/12/26 16:48:30;;;;;;;7.95;2.20;;;;;;;;;;5014435;28;20022;-64
2023/12/26 16:50:56;;;;;;;4.60;1.45;;;;;;;;;;5013081;28;20428;-63
2023/12/26 16:53:21;;;;;;;6.78;1.17;;;;;;;;;;5013049;28;20107;-63
2023/12/26 16:55:46;;;;;;;11.75;2.08;;;;;;;;;;5018043;28;20037;-63
2023/12/26 16:58:11;;;;;;;4.10;1.40;;;;;;;;;;5032490;28;20022;-63
2023/12/26 17:00:37;;;;;;;5.10;1.25;;;;;;;;;;5025977;28;20416;-63
2023/12/26 17:03:02;;;;;;;5.53;1.58;;;;;;;;;;5017438;28;20029;-63
2023/12/26 17:05:27;;;;;;;4.57;1.75;;;;;;;;;;5008653;28;20144;-63
2023/12/26 17:07:52;;;;;;;8.30;2.05;;;;;;;;;;5009213;28;20817;-63
2023/12/26 17:10:18;;;;;;;3.53;1.13;;;;;;;;;;5009626;28;20037;-62
2023/12/26 17:12:43;;;;;;;5.60;1.83;;;;;;;;;;5020434;28;20053;-63
2023/12/26 17:15:08;;;;;;;10.32;2.67;;;;;;;;;;5011037;28;20037;-64
2023/12/26 17:17:33;;;;;;;6.53;2.65;;;;;;;;;;5014062;28;20026;-62
2023/12/26 17:19:59;;;;;;;8.70;3.00;;;;;;;;;;5014080;28;20065;-61
2023/12/26 17:22:24;;;;;;;8.20;2.38;;;;;;;;;;5025859;28;20037;-63
2023/12/26 17:24:49;;;;;;;11.57;3.50;;;;;;;;;;5024554;28;20037;-64
2023/12/26 17:27:15;;;;;;;11.68;3.00;;;;;;;;;;5019697;28;20061;-64
2023/12/26 17:29:40;;;;;;;18.23;3.63;;;;;;;;;;5014364;28;20021;-64
2023/12/26 17:32:05;;;;;;;10.70;3.85;;;;;;;;;;5012997;28;20033;-64